sensor_id;sensor_type;location;lat;lon;timestamp;temperature;humidity
22114;DHT22;11223;49.968;9.062;2023-07-13T00:02:07;17.80;99.90
22114;DHT22;11223;49.968;9.062;2023-07-13T00:04:32;17.80;99.90
22114;DHT22;11223;49.968;9.062;2023-07-13T00:06:58;17.80;99.90
22114;DHT22;11223;49.968;9.062;2023-07-13T00:09:23;17.70;99.90
22114;DHT22;11223;49.968;9.062;2023-07-13T00:11:54;17.70;99.90
22114;DHT22;11223;49.968;9.062;2023-07-13T00:14:20;17.60;99.90
22114;DHT22;11223;49.968;9.062;2023-07-13T00:16:46;17.50;99.90
22114;DHT22;11223;49.968;9.062;2023-07-13T00:19:12;17.50;99.90
22114;DHT22;11223;49.968;9.062;2023-07-13T00:21:38;17.50;99.90
22114;DHT22;11223;49.968;9.062;2023-07-13T00:24:03;17.40;99.90
22114;DHT22;11223;49.968;9.062;2023-07-13T00:26:29;17.40;99.90
22114;DHT22;11223;49.968;9.062;2023-07-13T00:28:54;17.40;99.90
22114;DHT22;11223;49.968;9.062;2023-07-13T00:31:20;17.40;99.90
22114;DHT22;11223;49.968;9.062;2023-07-13T00:33:46;17.40;99.90
22114;DHT22;11223;49.968;9.062;2023-07-13T00:36:11;17.40;99.90
22114;DHT22;11223;49.968;9.062;2023-07-13T00:38:37;17.40;99.90
22114;DHT22;11223;49.968;9.062;2023-07-13T00:41:03;17.40;99.90
22114;DHT22;11223;49.968;9.062;2023-07-13T00:43:29;17.40;99.90
22114;DHT22;11223;49.968;9.062;2023-07-13T00:48:24;17.40;99.90
22114;DHT22;11223;49.968;9.062;2023-07-13T00:50:52;17.40;99.90
22114;DHT22;11223;49.968;9.062;2023-07-13T00:53:19;17.40;99.90
22114;DHT22;11223;49.968;9.062;2023-07-13T00:55:45;17.40;99.90
22114;DHT22;11223;49.968;9.062;2023-07-13T00:58:11;17.40;99.90
22114;DHT22;11223;49.968;9.062;2023-07-13T01:00:36;17.50;99.90
22114;DHT22;11223;49.968;9.062;2023-07-13T01:03:04;17.50;99.90
22114;DHT22;11223;49.968;9.062;2023-07-13T01:05:30;17.50;99.90
22114;DHT22;11223;49.968;9.062;2023-07-13T01:07:57;17.50;99.90
22114;DHT22;11223;49.968;9.062;2023-07-13T01:10:23;17.50;99.90
22114;DHT22;11223;49.968;9.062;2023-07-13T01:12:49;17.40;99.90
22114;DHT22;11223;49.968;9.062;2023-07-13T01:17:58;17.30;99.90
22114;DHT22;11223;49.968;9.062;2023-07-13T01:20:24;17.30;99.90
22114;DHT22;11223;49.968;9.062;2023-07-13T01:22:50;17.20;99.90
22114;DHT22;11223;49.968;9.062;2023-07-13T01:25:16;17.20;99.90
22114;DHT22;11223;49.968;9.062;2023-07-13T01:27:41;17.20;99.90
22114;DHT22;11223;49.968;9.062;2023-07-13T01:30:07;17.10;99.90
22114;DHT22;11223;49.968;9.062;2023-07-13T01:32:32;17.10;99.90
22114;DHT22;11223;49.968;9.062;2023-07-13T01:34:59;17.00;99.90
22114;DHT22;11223;49.968;9.062;2023-07-13T01:37:25;17.00;99.90
22114;DHT22;11223;49.968;9.062;2023-07-13T01:39:51;16.90;99.90
22114;DHT22;11223;49.968;9.062;2023-07-13T01:42:17;16.90;99.90
22114;DHT22;11223;49.968;9.062;2023-07-13T01:44:42;16.90;99.90
22114;DHT22;11223;49.968;9.062;2023-07-13T01:47:08;16.90;99.90
22114;DHT22;11223;49.968;9.062;2023-07-13T01:49:34;16.80;99.90
22114;DHT22;11223;49.968;9.062;2023-07-13T01:51:59;16.80;99.90
22114;DHT22;11223;49.968;9.062;2023-07-13T01:54:25;16.70;99.90
22114;DHT22;11223;49.968;9.062;2023-07-13T01:56:50;16.70;99.90
22114;DHT22;11223;49.968;9.062;2023-07-13T01:59:15;16.60;99.90
22114;DHT22;11223;49.968;9.062;2023-07-13T02:01:41;16.60;99.90
22114;DHT22;11223;49.968;9.062;2023-07-13T02:04:06;16.60;99.90
22114;DHT22;11223;49.968;9.062;2023-07-13T02:06:32;16.50;99.90
22114;DHT22;11223;49.968;9.062;2023-07-13T02:08:58;16.50;99.90
22114;DHT22;11223;49.968;9.062;2023-07-13T02:11:24;16.40;99.90
22114;DHT22;11223;49.968;9.062;2023-07-13T02:13:50;16.40;99.90
22114;DHT22;11223;49.968;9.062;2023-07-13T02:16:15;16.40;99.90
22114;DHT22;11223;49.968;9.062;2023-07-13T02:18:41;16.30;99.90
22114;DHT22;11223;49.968;9.062;2023-07-13T02:21:06;16.30;99.90
22114;DHT22;11223;49.968;9.062;2023-07-13T02:23:32;16.30;99.90
22114;DHT22;11223;49.968;9.062;2023-07-13T02:25:58;16.20;99.90
22114;DHT22;11223;49.968;9.062;2023-07-13T02:28:24;16.20;99.90
22114;DHT22;11223;49.968;9.062;2023-07-13T02:30:49;16.10;99.90
22114;DHT22;11223;49.968;9.062;2023-07-13T02:33:14;16.10;99.90
22114;DHT22;11223;49.968;9.062;2023-07-13T02:35:40;16.00;99.90
22114;DHT22;11223;49.968;9.062;2023-07-13T02:38:06;16.00;99.90
22114;DHT22;11223;49.968;9.062;2023-07-13T02:40:31;15.90;99.90
22114;DHT22;11223;49.968;9.062;2023-07-13T02:43:01;15.90;99.90
22114;DHT22;11223;49.968;9.062;2023-07-13T02:45:26;15.80;99.90
22114;DHT22;11223;49.968;9.062;2023-07-13T02:47:52;15.80;99.90
22114;DHT22;11223;49.968;9.062;2023-07-13T02:50:17;15.80;99.90
22114;DHT22;11223;49.968;9.062;2023-07-13T02:52:43;15.70;99.90
22114;DHT22;11223;49.968;9.062;2023-07-13T02:55:08;15.70;99.90
22114;DHT22;11223;49.968;9.062;2023-07-13T02:57:34;15.70;99.90
22114;DHT22;11223;49.968;9.062;2023-07-13T03:00:00;15.70;99.90
22114;DHT22;11223;49.968;9.062;2023-07-13T03:02:25;15.60;99.90
22114;DHT22;11223;49.968;9.062;2023-07-13T03:04:54;15.60;99.90
22114;DHT22;11223;49.968;9.062;2023-07-13T03:07:19;15.50;99.90
22114;DHT22;11223;49.968;9.062;2023-07-13T03:09:45;15.50;99.90
22114;DHT22;11223;49.968;9.062;2023-07-13T03:12:10;15.40;99.90
22114;DHT22;11223;49.968;9.062;2023-07-13T03:14:36;15.40;99.90
22114;DHT22;11223;49.968;9.062;2023-07-13T03:17:01;15.40;99.90
22114;DHT22;11223;49.968;9.062;2023-07-13T03:19:27;15.40;99.90
22114;DHT22;11223;49.968;9.062;2023-07-13T03:21:52;15.30;99.90
22114;DHT22;11223;49.968;9.062;2023-07-13T03:24:18;15.30;99.90
22114;DHT22;11223;49.968;9.062;2023-07-13T03:26:44;15.30;99.90
22114;DHT22;11223;49.968;9.062;2023-07-13T03:29:10;15.10;99.90
22114;DHT22;11223;49.968;9.062;2023-07-13T03:31:36;15.10;99.90
22114;DHT22;11223;49.968;9.062;2023-07-13T03:34:01;15.10;99.90
22114;DHT22;11223;49.968;9.062;2023-07-13T03:36:28;15.10;99.90
22114;DHT22;11223;49.968;9.062;2023-07-13T03:38:55;15.00;99.90
22114;DHT22;11223;49.968;9.062;2023-07-13T03:41:21;15.00;99.90
22114;DHT22;11223;49.968;9.062;2023-07-13T03:43:47;15.00;99.90
22114;DHT22;11223;49.968;9.062;2023-07-13T03:46:13;15.00;99.90
22114;DHT22;11223;49.968;9.062;2023-07-13T03:48:40;14.90;99.90
22114;DHT22;11223;49.968;9.062;2023-07-13T03:51:06;14.90;99.90
22114;DHT22;11223;49.968;9.062;2023-07-13T03:53:31;14.90;99.90
22114;DHT22;11223;49.968;9.062;2023-07-13T03:55:57;14.90;99.90
22114;DHT22;11223;49.968;9.062;2023-07-13T03:58:24;14.90;99.90
22114;DHT22;11223;49.968;9.062;2023-07-13T04:00:51;15.00;99.90
22114;DHT22;11223;49.968;9.062;2023-07-13T04:03:17;15.00;99.90
22114;DHT22;11223;49.968;9.062;2023-07-13T04:05:43;15.00;99.90
22114;DHT22;11223;49.968;9.062;2023-07-13T04:08:08;15.00;99.90
22114;DHT22;11223;49.968;9.062;2023-07-13T04:10:34;15.00;99.90
22114;DHT22;11223;49.968;9.062;2023-07-13T04:12:59;14.90;99.90
22114;DHT22;11223;49.968;9.062;2023-07-13T04:15:25;15.00;99.90
22114;DHT22;11223;49.968;9.062;2023-07-13T04:17:51;15.00;99.90
22114;DHT22;11223;49.968;9.062;2023-07-13T04:20:16;15.00;99.90
22114;DHT22;11223;49.968;9.062;2023-07-13T04:22:42;15.00;99.90
22114;DHT22;11223;49.968;9.062;2023-07-13T04:25:07;15.00;99.90
22114;DHT22;11223;49.968;9.062;2023-07-13T04:27:33;15.00;99.90
22114;DHT22;11223;49.968;9.062;2023-07-13T04:29:58;15.10;99.90
22114;DHT22;11223;49.968;9.062;2023-07-13T04:32:24;15.10;99.90
22114;DHT22;11223;49.968;9.062;2023-07-13T04:34:49;15.10;99.90
22114;DHT22;11223;49.968;9.062;2023-07-13T04:37:18;15.20;99.90
22114;DHT22;11223;49.968;9.062;2023-07-13T04:39:44;15.20;99.90
22114;DHT22;11223;49.968;9.062;2023-07-13T04:42:09;15.30;99.90
22114;DHT22;11223;49.968;9.062;2023-07-13T04:44:35;15.30;99.90
22114;DHT22;11223;49.968;9.062;2023-07-13T04:47:00;15.40;99.90
22114;DHT22;11223;49.968;9.062;2023-07-13T04:49:26;15.50;99.90
22114;DHT22;11223;49.968;9.062;2023-07-13T04:51:51;15.60;99.90
22114;DHT22;11223;49.968;9.062;2023-07-13T04:54:16;15.60;99.90
22114;DHT22;11223;49.968;9.062;2023-07-13T04:56:42;15.70;99.90
22114;DHT22;11223;49.968;9.062;2023-07-13T04:59:07;15.80;99.90
22114;DHT22;11223;49.968;9.062;2023-07-13T05:01:33;15.80;99.90
22114;DHT22;11223;49.968;9.062;2023-07-13T05:03:59;15.90;99.90
22114;DHT22;11223;49.968;9.062;2023-07-13T05:06:25;15.90;99.90
22114;DHT22;11223;49.968;9.062;2023-07-13T05:08:50;16.00;99.90
22114;DHT22;11223;49.968;9.062;2023-07-13T05:11:17;16.00;99.90
22114;DHT22;11223;49.968;9.062;2023-07-13T05:13:43;16.00;99.90
22114;DHT22;11223;49.968;9.062;2023-07-13T05:16:08;16.10;99.90
22114;DHT22;11223;49.968;9.062;2023-07-13T05:18:34;16.20;99.90
22114;DHT22;11223;49.968;9.062;2023-07-13T05:21:03;16.20;99.90
22114;DHT22;11223;49.968;9.062;2023-07-13T05:23:30;16.30;99.90
22114;DHT22;11223;49.968;9.062;2023-07-13T05:25:55;16.30;99.90
22114;DHT22;11223;49.968;9.062;2023-07-13T05:28:21;16.40;99.90
22114;DHT22;11223;49.968;9.062;2023-07-13T05:30:47;16.50;99.90
22114;DHT22;11223;49.968;9.062;2023-07-13T05:33:13;16.60;99.90
22114;DHT22;11223;49.968;9.062;2023-07-13T05:35:39;16.70;99.90
22114;DHT22;11223;49.968;9.062;2023-07-13T05:38:04;16.70;99.90
22114;DHT22;11223;49.968;9.062;2023-07-13T05:40:30;16.80;99.90
22114;DHT22;11223;49.968;9.062;2023-07-13T05:42:55;16.80;99.90
22114;DHT22;11223;49.968;9.062;2023-07-13T05:45:21;16.90;99.90
22114;DHT22;11223;49.968;9.062;2023-07-13T05:47:46;17.00;99.90
22114;DHT22;11223;49.968;9.062;2023-07-13T05:50:12;17.10;99.90
22114;DHT22;11223;49.968;9.062;2023-07-13T05:52:37;17.20;99.90
22114;DHT22;11223;49.968;9.062;2023-07-13T05:55:03;17.30;99.90
22114;DHT22;11223;49.968;9.062;2023-07-13T05:57:29;17.40;99.90
22114;DHT22;11223;49.968;9.062;2023-07-13T05:59:55;17.50;99.90
22114;DHT22;11223;49.968;9.062;2023-07-13T06:02:20;17.60;99.90
22114;DHT22;11223;49.968;9.062;2023-07-13T06:04:46;17.70;99.90
22114;DHT22;11223;49.968;9.062;2023-07-13T06:07:11;17.80;99.90
22114;DHT22;11223;49.968;9.062;2023-07-13T06:09:37;18.00;99.90
22114;DHT22;11223;49.968;9.062;2023-07-13T06:12:03;18.10;99.90
22114;DHT22;11223;49.968;9.062;2023-07-13T06:14:29;18.20;99.90
22114;DHT22;11223;49.968;9.062;2023-07-13T06:16:54;18.30;99.90
22114;DHT22;11223;49.968;9.062;2023-07-13T06:19:20;18.40;99.90
22114;DHT22;11223;49.968;9.062;2023-07-13T06:21:45;18.50;99.90
22114;DHT22;11223;49.968;9.062;2023-07-13T06:24:11;18.60;99.90
22114;DHT22;11223;49.968;9.062;2023-07-13T06:26:36;18.80;99.90
22114;DHT22;11223;49.968;9.062;2023-07-13T06:29:02;18.90;99.90
22114;DHT22;11223;49.968;9.062;2023-07-13T06:31:27;19.00;99.90
22114;DHT22;11223;49.968;9.062;2023-07-13T06:33:53;19.10;99.90
22114;DHT22;11223;49.968;9.062;2023-07-13T06:36:18;19.20;99.90
22114;DHT22;11223;49.968;9.062;2023-07-13T06:38:44;19.30;99.90
22114;DHT22;11223;49.968;9.062;2023-07-13T06:41:10;19.50;99.90
22114;DHT22;11223;49.968;9.062;2023-07-13T06:43:35;19.50;99.90
22114;DHT22;11223;49.968;9.062;2023-07-13T06:46:01;19.60;99.90
22114;DHT22;11223;49.968;9.062;2023-07-13T06:48:26;19.80;99.90
22114;DHT22;11223;49.968;9.062;2023-07-13T06:50:52;19.90;99.90
22114;DHT22;11223;49.968;9.062;2023-07-13T06:53:18;19.90;99.90
22114;DHT22;11223;49.968;9.062;2023-07-13T06:55:45;20.00;99.90
22114;DHT22;11223;49.968;9.062;2023-07-13T06:58:10;20.10;99.90
22114;DHT22;11223;49.968;9.062;2023-07-13T07:00:36;20.20;99.90
22114;DHT22;11223;49.968;9.062;2023-07-13T07:03:01;20.30;99.90
22114;DHT22;11223;49.968;9.062;2023-07-13T07:05:27;20.40;99.90
22114;DHT22;11223;49.968;9.062;2023-07-13T07:07:53;20.50;99.90
22114;DHT22;11223;49.968;9.062;2023-07-13T07:10:19;20.50;98.00
22114;DHT22;11223;49.968;9.062;2023-07-13T07:12:45;20.60;99.30
22114;DHT22;11223;49.968;9.062;2023-07-13T07:15:11;20.70;99.90
22114;DHT22;11223;49.968;9.062;2023-07-13T07:17:36;20.80;99.90
22114;DHT22;11223;49.968;9.062;2023-07-13T07:20:02;20.90;99.00
22114;DHT22;11223;49.968;9.062;2023-07-13T07:22:28;21.00;98.00
22114;DHT22;11223;49.968;9.062;2023-07-13T07:24:55;21.20;98.30
22114;DHT22;11223;49.968;9.062;2023-07-13T07:27:21;21.20;96.80
22114;DHT22;11223;49.968;9.062;2023-07-13T07:29:46;21.30;96.50
22114;DHT22;11223;49.968;9.062;2023-07-13T07:32:12;21.30;97.50
22114;DHT22;11223;49.968;9.062;2023-07-13T07:34:37;21.40;98.10
22114;DHT22;11223;49.968;9.062;2023-07-13T07:37:03;21.60;97.70
22114;DHT22;11223;49.968;9.062;2023-07-13T07:39:29;21.70;96.60
22114;DHT22;11223;49.968;9.062;2023-07-13T07:41:54;21.70;96.10
22114;DHT22;11223;49.968;9.062;2023-07-13T07:44:19;21.80;95.20
22114;DHT22;11223;49.968;9.062;2023-07-13T07:46:45;21.80;95.30
22114;DHT22;11223;49.968;9.062;2023-07-13T07:49:11;21.90;95.40
22114;DHT22;11223;49.968;9.062;2023-07-13T07:51:37;22.00;95.00
22114;DHT22;11223;49.968;9.062;2023-07-13T07:54:03;22.00;93.90
22114;DHT22;11223;49.968;9.062;2023-07-13T07:56:28;22.20;94.80
22114;DHT22;11223;49.968;9.062;2023-07-13T07:58:54;22.20;94.40
22114;DHT22;11223;49.968;9.062;2023-07-13T08:01:19;22.30;94.50
22114;DHT22;11223;49.968;9.062;2023-07-13T08:03:44;22.40;93.30
22114;DHT22;11223;49.968;9.062;2023-07-13T08:06:10;22.40;93.70
22114;DHT22;11223;49.968;9.062;2023-07-13T08:08:35;22.60;92.90
22114;DHT22;11223;49.968;9.062;2023-07-13T08:11:04;22.60;92.70
22114;DHT22;11223;49.968;9.062;2023-07-13T08:13:30;22.60;92.40
22114;DHT22;11223;49.968;9.062;2023-07-13T08:15:55;22.70;93.00
22114;DHT22;11223;49.968;9.062;2023-07-13T08:18:21;22.90;93.80
22114;DHT22;11223;49.968;9.062;2023-07-13T08:20:46;23.00;92.80
22114;DHT22;11223;49.968;9.062;2023-07-13T08:23:12;23.00;91.40
22114;DHT22;11223;49.968;9.062;2023-07-13T08:25:37;23.00;92.30
22114;DHT22;11223;49.968;9.062;2023-07-13T08:28:03;23.10;91.40
22114;DHT22;11223;49.968;9.062;2023-07-13T08:30:29;23.30;91.80
22114;DHT22;11223;49.968;9.062;2023-07-13T08:32:54;23.30;91.10
22114;DHT22;11223;49.968;9.062;2023-07-13T08:35:20;23.40;91.10
22114;DHT22;11223;49.968;9.062;2023-07-13T08:37:45;23.60;90.50
22114;DHT22;11223;49.968;9.062;2023-07-13T08:40:11;23.70;90.60
22114;DHT22;11223;49.968;9.062;2023-07-13T08:42:39;23.70;90.20
22114;DHT22;11223;49.968;9.062;2023-07-13T08:45:17;23.80;91.10
22114;DHT22;11223;49.968;9.062;2023-07-13T08:47:47;24.00;90.20
22114;DHT22;11223;49.968;9.062;2023-07-13T08:50:15;24.10;91.60
22114;DHT22;11223;49.968;9.062;2023-07-13T08:52:42;24.20;89.80
22114;DHT22;11223;49.968;9.062;2023-07-13T08:55:21;24.20;86.30
22114;DHT22;11223;49.968;9.062;2023-07-13T08:57:48;24.30;85.70
22114;DHT22;11223;49.968;9.062;2023-07-13T09:00:15;24.40;85.80
22114;DHT22;11223;49.968;9.062;2023-07-13T09:05:11;24.50;88.70
22114;DHT22;11223;49.968;9.062;2023-07-13T09:15:03;24.90;83.30
22114;DHT22;11223;49.968;9.062;2023-07-13T09:17:41;25.10;86.60
22114;DHT22;11223;49.968;9.062;2023-07-13T09:22:35;25.30;78.80
22114;DHT22;11223;49.968;9.062;2023-07-13T09:25:12;25.40;81.40
22114;DHT22;11223;49.968;9.062;2023-07-13T09:27:44;25.40;76.00
22114;DHT22;11223;49.968;9.062;2023-07-13T09:32:39;25.20;79.00
22114;DHT22;11223;49.968;9.062;2023-07-13T09:35:10;25.10;83.00
22114;DHT22;11223;49.968;9.062;2023-07-13T09:37:36;25.10;81.80
22114;DHT22;11223;49.968;9.062;2023-07-13T09:40:02;25.00;80.90
22114;DHT22;11223;49.968;9.062;2023-07-13T09:42:30;25.00;80.10
22114;DHT22;11223;49.968;9.062;2023-07-13T09:44:58;24.90;79.10
22114;DHT22;11223;49.968;9.062;2023-07-13T09:47:28;25.00;79.40
22114;DHT22;11223;49.968;9.062;2023-07-13T09:50:05;25.00;80.00
22114;DHT22;11223;49.968;9.062;2023-07-13T09:52:45;24.80;84.10
22114;DHT22;11223;49.968;9.062;2023-07-13T09:57:48;24.80;81.30
22114;DHT22;11223;49.968;9.062;2023-07-13T10:00:22;24.80;82.20
22114;DHT22;11223;49.968;9.062;2023-07-13T10:02:49;24.80;86.10
22114;DHT22;11223;49.968;9.062;2023-07-13T10:05:22;25.00;80.40
22114;DHT22;11223;49.968;9.062;2023-07-13T10:07:50;25.00;76.70
22114;DHT22;11223;49.968;9.062;2023-07-13T10:10:20;25.30;78.70
22114;DHT22;11223;49.968;9.062;2023-07-13T10:12:47;25.50;77.50
22114;DHT22;11223;49.968;9.062;2023-07-13T10:15:17;25.70;77.60
22114;DHT22;11223;49.968;9.062;2023-07-13T10:17:43;25.90;75.90
22114;DHT22;11223;49.968;9.062;2023-07-13T10:20:09;26.00;76.40
22114;DHT22;11223;49.968;9.062;2023-07-13T10:25:23;25.90;74.00
22114;DHT22;11223;49.968;9.062;2023-07-13T10:27:58;25.90;72.10
22114;DHT22;11223;49.968;9.062;2023-07-13T10:30:25;25.80;72.50
22114;DHT22;11223;49.968;9.062;2023-07-13T10:32:53;25.80;73.20
22114;DHT22;11223;49.968;9.062;2023-07-13T10:35:20;25.80;70.20
22114;DHT22;11223;49.968;9.062;2023-07-13T10:37:49;25.90;74.60
22114;DHT22;11223;49.968;9.062;2023-07-13T10:40:17;25.90;76.30
22114;DHT22;11223;49.968;9.062;2023-07-13T10:42:45;26.00;74.00
22114;DHT22;11223;49.968;9.062;2023-07-13T10:45:15;26.30;77.40
22114;DHT22;11223;49.968;9.062;2023-07-13T10:47:42;26.60;73.00
22114;DHT22;11223;49.968;9.062;2023-07-13T10:50:08;26.60;68.20
22114;DHT22;11223;49.968;9.062;2023-07-13T10:52:52;26.70;69.70
22114;DHT22;11223;49.968;9.062;2023-07-13T10:55:32;26.70;70.00
22114;DHT22;11223;49.968;9.062;2023-07-13T10:58:19;26.90;69.80
22114;DHT22;11223;49.968;9.062;2023-07-13T11:01:02;26.80;68.10
22114;DHT22;11223;49.968;9.062;2023-07-13T11:03:29;26.80;71.60
22114;DHT22;11223;49.968;9.062;2023-07-13T11:06:09;26.80;68.90
22114;DHT22;11223;49.968;9.062;2023-07-13T11:08:36;26.80;70.20
22114;DHT22;11223;49.968;9.062;2023-07-13T11:11:02;26.70;69.60
22114;DHT22;11223;49.968;9.062;2023-07-13T11:16:14;26.40;71.10
22114;DHT22;11223;49.968;9.062;2023-07-13T11:21:30;26.30;73.00
22114;DHT22;11223;49.968;9.062;2023-07-13T11:31:43;26.70;70.60
22114;DHT22;11223;49.968;9.062;2023-07-13T11:34:15;27.00;66.70
22114;DHT22;11223;49.968;9.062;2023-07-13T11:36:42;26.80;66.50
22114;DHT22;11223;49.968;9.062;2023-07-13T11:41:53;26.10;67.40
22114;DHT22;11223;49.968;9.062;2023-07-13T11:44:21;25.80;66.70
22114;DHT22;11223;49.968;9.062;2023-07-13T11:46:48;25.60;72.10
22114;DHT22;11223;49.968;9.062;2023-07-13T11:49:15;25.40;68.80
22114;DHT22;11223;49.968;9.062;2023-07-13T11:51:41;25.50;70.10
22114;DHT22;11223;49.968;9.062;2023-07-13T11:54:12;25.70;67.50
22114;DHT22;11223;49.968;9.062;2023-07-13T11:56:39;26.10;69.20
22114;DHT22;11223;49.968;9.062;2023-07-13T11:59:06;26.60;66.90
22114;DHT22;11223;49.968;9.062;2023-07-13T12:01:32;26.80;68.70
22114;DHT22;11223;49.968;9.062;2023-07-13T12:03:59;27.10;64.00
22114;DHT22;11223;49.968;9.062;2023-07-13T12:06:33;27.50;63.90
22114;DHT22;11223;49.968;9.062;2023-07-13T12:09:00;27.70;59.80
22114;DHT22;11223;49.968;9.062;2023-07-13T12:11:26;27.90;63.60
22114;DHT22;11223;49.968;9.062;2023-07-13T12:13:52;27.90;62.00
22114;DHT22;11223;49.968;9.062;2023-07-13T12:16:26;27.80;64.70
22114;DHT22;11223;49.968;9.062;2023-07-13T12:18:53;27.80;64.20
22114;DHT22;11223;49.968;9.062;2023-07-13T12:21:19;28.00;66.40
22114;DHT22;11223;49.968;9.062;2023-07-13T12:23:47;28.00;64.40
22114;DHT22;11223;49.968;9.062;2023-07-13T12:26:14;28.10;64.70
22114;DHT22;11223;49.968;9.062;2023-07-13T12:28:45;28.20;61.70
22114;DHT22;11223;49.968;9.062;2023-07-13T12:31:24;28.00;62.90
22114;DHT22;11223;49.968;9.062;2023-07-13T12:33:57;27.70;64.10
22114;DHT22;11223;49.968;9.062;2023-07-13T12:36:23;27.40;61.90
22114;DHT22;11223;49.968;9.062;2023-07-13T12:38:49;27.10;63.50
22114;DHT22;11223;49.968;9.062;2023-07-13T12:41:14;26.80;65.40
22114;DHT22;11223;49.968;9.062;2023-07-13T12:43:40;26.40;68.90
22114;DHT22;11223;49.968;9.062;2023-07-13T12:46:19;26.20;70.50
22114;DHT22;11223;49.968;9.062;2023-07-13T12:48:48;25.90;71.30
22114;DHT22;11223;49.968;9.062;2023-07-13T12:51:14;25.80;73.10
22114;DHT22;11223;49.968;9.062;2023-07-13T12:53:40;25.70;69.00
22114;DHT22;11223;49.968;9.062;2023-07-13T12:56:08;25.70;68.60
22114;DHT22;11223;49.968;9.062;2023-07-13T12:58:40;25.80;69.90
22114;DHT22;11223;49.968;9.062;2023-07-13T13:01:09;25.80;72.50
22114;DHT22;11223;49.968;9.062;2023-07-13T13:03:36;25.70;70.20
22114;DHT22;11223;49.968;9.062;2023-07-13T13:06:03;25.60;73.30
22114;DHT22;11223;49.968;9.062;2023-07-13T13:08:31;25.40;73.10
22114;DHT22;11223;49.968;9.062;2023-07-13T13:10:56;25.30;73.80
22114;DHT22;11223;49.968;9.062;2023-07-13T13:13:22;25.20;70.80
22114;DHT22;11223;49.968;9.062;2023-07-13T13:15:47;25.10;74.60
22114;DHT22;11223;49.968;9.062;2023-07-13T13:18:15;24.90;73.50
22114;DHT22;11223;49.968;9.062;2023-07-13T13:20:41;24.80;76.10
22114;DHT22;11223;49.968;9.062;2023-07-13T13:23:10;24.70;74.80
22114;DHT22;11223;49.968;9.062;2023-07-13T13:25:36;24.60;78.40
22114;DHT22;11223;49.968;9.062;2023-07-13T13:28:02;24.50;79.20
22114;DHT22;11223;49.968;9.062;2023-07-13T13:30:27;24.40;81.50
22114;DHT22;11223;49.968;9.062;2023-07-13T13:32:52;24.30;79.10
22114;DHT22;11223;49.968;9.062;2023-07-13T13:35:19;24.20;80.50
22114;DHT22;11223;49.968;9.062;2023-07-13T13:37:45;24.20;80.20
22114;DHT22;11223;49.968;9.062;2023-07-13T13:42:39;24.30;76.30
22114;DHT22;11223;49.968;9.062;2023-07-13T13:45:05;24.30;78.50
22114;DHT22;11223;49.968;9.062;2023-07-13T13:47:31;24.30;72.30
22114;DHT22;11223;49.968;9.062;2023-07-13T13:49:58;24.40;78.00
22114;DHT22;11223;49.968;9.062;2023-07-13T13:52:24;24.40;80.40
22114;DHT22;11223;49.968;9.062;2023-07-13T13:54:49;24.50;80.10
22114;DHT22;11223;49.968;9.062;2023-07-13T13:57:15;24.60;82.30
22114;DHT22;11223;49.968;9.062;2023-07-13T13:59:40;24.60;80.80
22114;DHT22;11223;49.968;9.062;2023-07-13T14:02:15;24.60;79.40
22114;DHT22;11223;49.968;9.062;2023-07-13T14:04:45;24.50;72.50
22114;DHT22;11223;49.968;9.062;2023-07-13T14:07:11;24.50;81.50
22114;DHT22;11223;49.968;9.062;2023-07-13T14:09:36;24.60;75.90
22114;DHT22;11223;49.968;9.062;2023-07-13T14:12:03;24.70;75.80
22114;DHT22;11223;49.968;9.062;2023-07-13T14:14:29;24.90;80.90
22114;DHT22;11223;49.968;9.062;2023-07-13T14:16:55;25.00;80.40
22114;DHT22;11223;49.968;9.062;2023-07-13T14:19:22;25.00;77.20
22114;DHT22;11223;49.968;9.062;2023-07-13T14:21:48;25.00;77.80
22114;DHT22;11223;49.968;9.062;2023-07-13T14:24:14;24.90;67.00
22114;DHT22;11223;49.968;9.062;2023-07-13T14:26:40;25.00;72.00
22114;DHT22;11223;49.968;9.062;2023-07-13T14:29:14;25.00;78.30
22114;DHT22;11223;49.968;9.062;2023-07-13T14:31:40;25.00;77.90
22114;DHT22;11223;49.968;9.062;2023-07-13T14:34:07;25.00;69.40
22114;DHT22;11223;49.968;9.062;2023-07-13T14:36:33;25.00;70.20
22114;DHT22;11223;49.968;9.062;2023-07-13T14:39:01;25.20;70.10
22114;DHT22;11223;49.968;9.062;2023-07-13T14:41:31;25.30;74.10
22114;DHT22;11223;49.968;9.062;2023-07-13T14:43:56;25.50;74.80
22114;DHT22;11223;49.968;9.062;2023-07-13T14:46:29;25.60;70.20
22114;DHT22;11223;49.968;9.062;2023-07-13T14:48:59;25.80;73.40
22114;DHT22;11223;49.968;9.062;2023-07-13T14:51:25;25.70;73.20
22114;DHT22;11223;49.968;9.062;2023-07-13T14:53:50;25.70;71.60
22114;DHT22;11223;49.968;9.062;2023-07-13T14:56:16;25.60;75.60
22114;DHT22;11223;49.968;9.062;2023-07-13T14:58:42;25.50;76.00
22114;DHT22;11223;49.968;9.062;2023-07-13T15:01:14;25.50;74.70
22114;DHT22;11223;49.968;9.062;2023-07-13T15:03:41;25.80;75.80
22114;DHT22;11223;49.968;9.062;2023-07-13T15:06:10;26.10;74.20
22114;DHT22;11223;49.968;9.062;2023-07-13T15:08:35;26.30;75.20
22114;DHT22;11223;49.968;9.062;2023-07-13T15:11:01;26.30;67.50
22114;DHT22;11223;49.968;9.062;2023-07-13T15:13:26;26.00;75.20
22114;DHT22;11223;49.968;9.062;2023-07-13T15:15:53;25.80;74.10
22114;DHT22;11223;49.968;9.062;2023-07-13T15:18:19;25.60;76.40
22114;DHT22;11223;49.968;9.062;2023-07-13T15:20:46;25.50;79.40
22114;DHT22;11223;49.968;9.062;2023-07-13T15:23:12;25.40;76.00
22114;DHT22;11223;49.968;9.062;2023-07-13T15:25:38;25.60;75.80
22114;DHT22;11223;49.968;9.062;2023-07-13T15:28:04;26.10;72.60
22114;DHT22;11223;49.968;9.062;2023-07-13T15:30:38;26.70;71.90
22114;DHT22;11223;49.968;9.062;2023-07-13T15:33:15;27.00;69.30
22114;DHT22;11223;49.968;9.062;2023-07-13T15:35:44;27.60;74.10
22114;DHT22;11223;49.968;9.062;2023-07-13T15:38:19;27.70;69.70
22114;DHT22;11223;49.968;9.062;2023-07-13T15:40:45;27.40;72.40
22114;DHT22;11223;49.968;9.062;2023-07-13T15:43:12;26.90;65.40
22114;DHT22;11223;49.968;9.062;2023-07-13T15:45:38;26.60;67.20
22114;DHT22;11223;49.968;9.062;2023-07-13T15:48:14;26.40;67.80
22114;DHT22;11223;49.968;9.062;2023-07-13T15:50:42;26.60;74.30
22114;DHT22;11223;49.968;9.062;2023-07-13T15:53:08;26.80;63.80
22114;DHT22;11223;49.968;9.062;2023-07-13T15:55:36;26.80;68.20
22114;DHT22;11223;49.968;9.062;2023-07-13T15:58:02;26.60;74.20
22114;DHT22;11223;49.968;9.062;2023-07-13T16:00:27;26.30;66.60
22114;DHT22;11223;49.968;9.062;2023-07-13T16:02:53;26.00;72.80
22114;DHT22;11223;49.968;9.062;2023-07-13T16:05:19;25.80;73.80
22114;DHT22;11223;49.968;9.062;2023-07-13T16:07:47;25.70;73.70
22114;DHT22;11223;49.968;9.062;2023-07-13T16:10:17;25.50;75.00
22114;DHT22;11223;49.968;9.062;2023-07-13T16:12:44;25.40;75.20